Time;durP1;ratioP1;P1;durP2;ratioP2;P2;SDS_P1;SDS_P2;PMS_P1;PMS_P2;Temp;Humidity;BMP_temperature;BMP_pressure;BME280_temperature;BME280_humidity;BME280_pressure;Samples;Min_cycle;Max_cycle;Signal;HPM_P1;HPM_P2
2023/05/30 00:01:08;;;;;;;;;;;;;;;15.54;47.34;101799.19;4179119;28;20462;-71
2023/05/30 00:03:10;;;;;;;;;;;;;;;15.54;47.59;101798.38;4179019;28;20015;-71
2023/05/30 00:05:13;;;;;;;;;;;;;;;15.54;47.99;101799.19;4178317;28;20003;-71
2023/05/30 00:07:16;;;;;;;;;;;;;;;15.52;47.92;101795.81;4179315;28;20373;-71
2023/05/30 00:09:19;;;;;;;;;;;;;;;15.47;47.75;101785.47;4177865;28;20015;-71
2023/05/30 00:11:23;;;;;;;;;;;;;;;15.47;47.84;101795.53;4178928;28;20036;-70
2023/05/30 00:13:28;;;;;;;;;;;;;;;15.45;47.58;101793.00;4179255;28;20012;-70
2023/05/30 00:15:31;;;;;;;;;;;;;;;15.42;48.03;101800.66;4178832;28;20024;-70
2023/05/30 00:17:35;;;;;;;;;;;;;;;15.37;48.17;101805.81;4180045;28;20453;-71
2023/05/30 00:19:37;;;;;;;;;;;;;;;15.34;48.13;101793.41;4178573;28;20016;-70
2023/05/30 00:21:39;;;;;;;;;;;;;;;15.34;48.30;101806.19;4178544;28;20067;-70
2023/05/30 00:23:45;;;;;;;;;;;;;;;15.30;48.36;101808.44;4177758;28;20047;-71
2023/05/30 00:25:46;;;;;;;;;;;;;;;15.27;48.62;101806.91;4179449;28;20032;-72
2023/05/30 00:27:48;;;;;;;;;;;;;;;15.27;48.98;101815.06;4179094;28;20015;-73
2023/05/30 00:29:50;;;;;;;;;;;;;;;15.26;49.10;101815.25;4169141;28;20033;-70
2023/05/30 00:31:52;;;;;;;;;;;;;;;15.20;49.68;101810.53;4152484;28;20031;-70
2023/05/30 00:33:54;;;;;;;;;;;;;;;15.10;49.55;101817.06;4161441;28;20023;-70
2023/05/30 00:35:56;;;;;;;;;;;;;;;15.03;50.05;101820.69;4162604;28;20426;-70
2023/05/30 00:37:59;;;;;;;;;;;;;;;15.00;49.84;101818.31;4161713;28;20088;-70
2023/05/30 00:40:03;;;;;;;;;;;;;;;15.00;50.06;101813.75;4154014;28;20028;-70
2023/05/30 00:42:06;;;;;;;;;;;;;;;14.98;49.86;101817.66;4162850;28;20024;-71
2023/05/30 00:44:09;;;;;;;;;;;;;;;14.92;50.12;101813.78;4161861;28;20339;-70
2023/05/30 00:46:11;;;;;;;;;;;;;;;14.91;50.17;101814.84;4178124;28;20015;-71
2023/05/30 00:48:14;;;;;;;;;;;;;;;14.89;49.90;101822.31;4162020;28;20019;-73
2023/05/30 00:50:16;;;;;;;;;;;;;;;14.87;50.02;101814.31;4161635;28;20023;-71
2023/05/30 00:52:18;;;;;;;;;;;;;;;14.83;50.29;101821.16;4161418;28;20036;-71
2023/05/30 00:54:21;;;;;;;;;;;;;;;14.80;50.23;101820.69;4161151;28;20011;-70
2023/05/30 00:56:26;;;;;;;;;;;;;;;14.77;50.47;101811.84;4161551;28;20021;-71
2023/05/30 00:58:29;;;;;;;;;;;;;;;14.73;50.78;101813.22;4161658;28;20015;-71
2023/05/30 01:00:37;;;;;;;;;;;;;;;14.73;50.50;101815.97;4161661;28;20475;-71
2023/05/30 01:02:39;;;;;;;;;;;;;;;14.73;50.46;101815.09;4161826;28;20443;-72
2023/05/30 01:04:41;;;;;;;;;;;;;;;14.75;50.39;101811.19;4192810;28;20015;-71
2023/05/30 01:06:46;;;;;;;;;;;;;;;14.77;50.55;101805.56;4161730;28;20012;-72
2023/05/30 01:08:48;;;;;;;;;;;;;;;14.74;51.03;101809.47;4161392;28;20016;-71
2023/05/30 01:10:51;;;;;;;;;;;;;;;14.70;50.82;101810.00;4161218;28;20012;-72
2023/05/30 01:12:59;;;;;;;;;;;;;;;14.64;51.07;101813.44;4161634;28;20016;-71
2023/05/30 01:15:05;;;;;;;;;;;;;;;14.56;51.44;101817.88;4161689;28;20012;-72
2023/05/30 01:17:09;;;;;;;;;;;;;;;14.51;51.37;101819.41;4161770;28;20020;-71
2023/05/30 01:19:17;;;;;;;;;;;;;;;14.50;51.79;101815.84;4152348;28;20011;-71
2023/05/30 01:21:19;;;;;;;;;;;;;;;14.50;51.49;101818.56;4161658;28;20363;-71
2023/05/30 01:23:31;;;;;;;;;;;;;;;14.46;51.31;101816.38;4161266;28;20443;-73
2023/05/30 01:25:39;;;;;;;;;;;;;;;14.39;51.82;101818.97;4160526;28;20040;-71
2023/05/30 01:27:43;;;;;;;;;;;;;;;14.36;52.05;101817.44;4152002;28;20019;-71
2023/05/30 01:29:47;;;;;;;;;;;;;;;14.35;52.03;101821.16;4176808;28;20365;-73
2023/05/30 01:31:49;;;;;;;;;;;;;;;14.35;52.11;101810.31;4161814;28;20012;-71
2023/05/30 01:33:51;;;;;;;;;;;;;;;14.44;51.95;101813.00;4177120;28;20051;-71
2023/05/30 01:35:56;;;;;;;;;;;;;;;14.39;51.83;101822.53;4161461;28;20067;-71
2023/05/30 01:37:59;;;;;;;;;;;;;;;14.37;52.11;101818.28;4161126;28;20016;-72
2023/05/30 01:40:02;;;;;;;;;;;;;;;14.35;52.63;101817.63;4153298;28;20067;-71
2023/05/30 01:42:08;;;;;;;;;;;;;;;14.32;52.86;101820.69;4193430;28;20022;-72
2023/05/30 01:44:11;;;;;;;;;;;;;;;14.29;52.90;101829.19;4152462;28;20012;-72
2023/05/30 01:46:17;;;;;;;;;;;;;;;14.22;52.91;101823.59;4177233;28;20450;-73
2023/05/30 01:48:23;;;;;;;;;;;;;;;14.21;52.96;101825.47;4176859;28;20469;-71
2023/05/30 01:50:27;;;;;;;;;;;;;;;14.21;53.04;101830.06;4192847;28;20019;-71
2023/05/30 01:52:31;;;;;;;;;;;;;;;14.19;53.23;101823.97;4159874;28;20635;-71
2023/05/30 01:54:33;;;;;;;;;;;;;;;14.14;53.34;101829.06;4159787;28;20027;-71
2023/05/30 01:56:36;;;;;;;;;;;;;;;14.02;53.51;101826.69;4177076;28;20442;-71
2023/05/30 01:58:38;;;;;;;;;;;;;;;13.94;53.95;101831.31;4192891;28;20027;-71
2023/05/30 02:00:40;;;;;;;;;;;;;;;13.93;53.84;101835.03;4176176;28;20024;-71
2023/05/30 02:02:43;;;;;;;;;;;;;;;13.90;53.90;101835.38;4160732;28;20016;-71
2023/05/30 02:04:45;;;;;;;;;;;;;;;13.90;53.97;101841.66;4160920;28;20471;-71
2023/05/30 02:06:47;;;;;;;;;;;;;;;13.87;54.06;101836.56;4161259;28;20015;-71
2023/05/30 02:08:52;;;;;;;;;;;;;;;13.80;54.10;101830.16;4160628;28;20028;-71
2023/05/30 02:10:54;;;;;;;;;;;;;;;13.72;54.24;101828.28;4177189;28;20024;-71
2023/05/30 02:12:55;;;;;;;;;;;;;;;13.74;54.37;101845.25;4160279;28;20020;-71
2023/05/30 02:14:58;;;;;;;;;;;;;;;13.69;54.40;101840.31;4192051;28;20011;-71
2023/05/30 02:17:00;;;;;;;;;;;;;;;13.66;54.18;101842.53;4177183;28;20400;-71
2023/05/30 02:19:06;;;;;;;;;;;;;;;13.62;54.29;101844.75;4162624;28;20008;-71
2023/05/30 02:21:09;;;;;;;;;;;;;;;13.63;54.35;101835.59;4171292;28;20016;-71
2023/05/30 02:23:11;;;;;;;;;;;;;;;13.62;54.32;101836.63;4163392;28;20386;-71
2023/05/30 02:25:13;;;;;;;;;;;;;;;13.59;54.23;101836.09;4170429;28;20015;-71
2023/05/30 02:27:15;;;;;;;;;;;;;;;13.54;54.49;101839.31;4178771;28;20020;-71
2023/05/30 02:29:17;;;;;;;;;;;;;;;13.54;54.44;101825.75;4169883;28;20351;-71
2023/05/30 02:31:22;;;;;;;;;;;;;;;13.57;54.53;101830.00;4163425;28;20478;-71
2023/05/30 02:33:24;;;;;;;;;;;;;;;13.53;54.29;101824.06;4155402;28;20024;-71
2023/05/30 02:35:27;;;;;;;;;;;;;;;13.53;54.03;101824.06;4163415;28;20016;-71
2023/05/30 02:37:29;;;;;;;;;;;;;;;13.56;53.51;101831.00;4164028;28;20404;-71
2023/05/30 02:39:32;;;;;;;;;;;;;;;13.55;53.88;101827.44;4164059;28;20004;-71
2023/05/30 02:41:36;;;;;;;;;;;;;;;13.54;53.72;101822.19;4170774;28;20024;-71
2023/05/30 02:43:40;;;;;;;;;;;;;;;13.54;53.47;101830.34;4163604;28;20023;-71
2023/05/30 02:45:43;;;;;;;;;;;;;;;13.50;53.71;101822.53;4170775;28;20016;-72
2023/05/30 02:47:45;;;;;;;;;;;;;;;13.43;53.89;101821.53;4153816;28;20031;-71
2023/05/30 02:49:47;;;;;;;;;;;;;;;13.44;53.84;101827.78;4158763;28;20000;-71
2023/05/30 02:51:50;;;;;;;;;;;;;;;13.34;54.13;101833.41;4161801;28;20036;-71
2023/05/30 02:53:57;;;;;;;;;;;;;;;13.28;54.74;101828.59;4159211;28;20016;-71
2023/05/30 02:56:11;;;;;;;;;;;;;;;13.27;54.44;101833.16;4162568;28;20023;-71
2023/05/30 02:58:28;;;;;;;;;;;;;;;13.24;54.14;101833.50;4162924;28;20016;-71
2023/05/30 03:00:45;;;;;;;;;;;;;;;13.21;54.37;101836.53;4177704;28;20019;-71
2023/05/30 03:02:55;;;;;;;;;;;;;;;13.19;55.11;101845.88;4170878;28;20023;-71
2023/05/30 03:04:58;;;;;;;;;;;;;;;13.18;54.30;101847.72;4189057;28;20016;-71
2023/05/30 03:07:02;;;;;;;;;;;;;;;13.14;54.41;101847.22;4195822;28;20012;-71
2023/05/30 03:09:06;;;;;;;;;;;;;;;13.12;54.41;101846.56;4185648;28;20023;-71
2023/05/30 03:11:12;;;;;;;;;;;;;;;13.10;54.51;101847.72;4194790;28;20209;-71
2023/05/30 03:13:14;;;;;;;;;;;;;;;13.05;54.53;101855.53;4180147;28;20028;-72
2023/05/30 03:15:17;;;;;;;;;;;;;;;12.95;54.96;101858.38;4186413;28;20027;-71
2023/05/30 03:17:19;;;;;;;;;;;;;;;12.89;55.36;101856.34;4195969;28;20027;-71
2023/05/30 03:19:22;;;;;;;;;;;;;;;12.85;54.86;101866.63;4179362;28;20007;-71
2023/05/30 03:21:24;;;;;;;;;;;;;;;12.85;55.12;101860.38;4178366;28;20012;-71
2023/05/30 03:23:27;;;;;;;;;;;;;;;12.85;55.22;101855.78;4196317;28;20019;-71
2023/05/30 03:25:29;;;;;;;;;;;;;;;12.86;55.10;101852.06;4178002;28;20015;-72
2023/05/30 03:27:31;;;;;;;;;;;;;;;12.79;55.08;101857.31;4179284;28;20032;-71
2023/05/30 03:29:34;;;;;;;;;;;;;;;12.70;55.46;101862.88;4185752;28;20032;-71
2023/05/30 03:31:40;;;;;;;;;;;;;;;12.60;55.69;101865.69;4187158;28;20454;-71
2023/05/30 03:33:43;;;;;;;;;;;;;;;12.55;56.24;101854.50;4195061;28;20023;-71
2023/05/30 03:35:47;;;;;;;;;;;;;;;12.60;55.86;101858.44;4179472;28;20031;-70
2023/05/30 03:37:49;;;;;;;;;;;;;;;12.56;56.11;101858.94;4178761;28;20011;-71
2023/05/30 03:39:52;;;;;;;;;;;;;;;12.61;55.81;101854.69;4179204;28;20011;-71
2023/05/30 03:41:55;;;;;;;;;;;;;;;12.71;55.86;101853.72;4179638;28;20023;-71
2023/05/30 03:43:57;;;;;;;;;;;;;;;12.71;55.52;101856.44;4177822;28;20019;-71
2023/05/30 03:45:59;;;;;;;;;;;;;;;12.77;55.29;101859.34;4187012;28;20032;-70
2023/05/30 03:48:01;;;;;;;;;;;;;;;12.79;55.48;101867.31;4179274;28;20007;-71
2023/05/30 03:50:03;;;;;;;;;;;;;;;12.80;55.53;101861.75;4178676;28;20012;-72
2023/05/30 03:52:05;;;;;;;;;;;;;;;12.86;55.32;101868.34;4178560;28;20031;-71
2023/05/30 03:54:08;;;;;;;;;;;;;;;12.91;55.20;101871.41;4178355;28;20019;-71
2023/05/30 03:56:12;;;;;;;;;;;;;;;12.87;55.25;101864.63;4179350;28;20036;-71
2023/05/30 03:58:15;;;;;;;;;;;;;;;12.81;55.71;101870.72;4178513;28;20514;-71
2023/05/30 04:00:17;;;;;;;;;;;;;;;12.78;56.09;101880.00;4179583;28;20035;-71
2023/05/30 04:02:19;;;;;;;;;;;;;;;12.85;55.92;101891.03;4179633;28;20035;-71
2023/05/30 04:04:21;;;;;;;;;;;;;;;12.85;56.23;101888.31;4179420;28;20012;-72
2023/05/30 04:06:24;;;;;;;;;;;;;;;12.87;56.34;101880.91;4178640;28;20011;-71
2023/05/30 04:08:26;;;;;;;;;;;;;;;12.85;56.52;101872.06;4177680;28;20405;-71
2023/05/30 04:10:28;;;;;;;;;;;;;;;12.89;56.46;101878.03;4184864;28;20088;-71
2023/05/30 04:12:31;;;;;;;;;;;;;;;12.93;56.15;101874.81;4193114;28;20477;-71
2023/05/30 04:14:34;;;;;;;;;;;;;;;12.98;56.18;101880.59;4194003;28;20510;-71
2023/05/30 04:16:36;;;;;;;;;;;;;;;13.04;55.93;101880.94;4177769;28;20027;-71
2023/05/30 04:18:43;;;;;;;;;;;;;;;13.09;55.86;101884.84;4193263;28;20490;-71
2023/05/30 04:20:46;;;;;;;;;;;;;;;13.11;55.73;101887.41;4185295;28;20016;-71
2023/05/30 04:22:48;;;;;;;;;;;;;;;13.16;55.86;101893.19;4192141;28;20035;-71
2023/05/30 04:24:50;;;;;;;;;;;;;;;13.16;56.27;101890.47;4178596;28;20020;-71
2023/05/30 04:26:52;;;;;;;;;;;;;;;13.19;56.15;101898.28;4178031;28;20530;-71
2023/05/30 04:28:58;;;;;;;;;;;;;;;13.26;56.17;101895.72;4177338;28;20078;-71
2023/05/30 04:31:00;;;;;;;;;;;;;;;13.36;55.82;101888.34;4178466;28;20699;-71
2023/05/30 04:33:02;;;;;;;;;;;;;;;13.42;55.68;101890.38;4194217;28;20135;-71
2023/05/30 04:35:04;;;;;;;;;;;;;;;13.43;55.78;101896.66;4177646;28;20493;-71
2023/05/30 04:37:08;;;;;;;;;;;;;;;13.46;55.93;101885.44;4194673;28;20817;-71
2023/05/30 04:39:10;;;;;;;;;;;;;;;13.51;55.82;101892.09;4178560;28;20023;-71
2023/05/30 04:41:14;;;;;;;;;;;;;;;13.58;55.95;101886.81;4177394;28;20365;-71
2023/05/30 04:43:19;;;;;;;;;;;;;;;13.65;56.00;101893.28;4177793;28;20023;-71
2023/05/30 04:45:28;;;;;;;;;;;;;;;13.69;56.12;101894.63;4177197;28;20024;-70
2023/05/30 04:47:30;;;;;;;;;;;;;;;13.74;55.82;101899.53;4178488;28;20371;-71
2023/05/30 04:49:33;;;;;;;;;;;;;;;13.80;55.65;101903.47;4176215;28;20032;-71
2023/05/30 04:51:37;;;;;;;;;;;;;;;13.84;55.85;101900.25;4178141;28;20458;-71
2023/05/30 04:53:39;;;;;;;;;;;;;;;13.91;56.01;101903.13;4177268;28;20023;-71
2023/05/30 04:55:41;;;;;;;;;;;;;;;13.93;55.73;101909.22;4171234;28;20008;-71
2023/05/30 04:57:43;;;;;;;;;;;;;;;14.00;55.25;101912.97;4177267;28;20013;-70
2023/05/30 04:59:45;;;;;;;;;;;;;;;14.02;54.96;101904.63;4192634;28;20035;-70
2023/05/30 05:01:49;;;;;;;;;;;;;;;14.08;54.89;101913.97;4176003;28;20032;-71
2023/05/30 05:03:52;;;;;;;;;;;;;;;14.15;55.31;101904.97;4171664;28;20028;-70
2023/05/30 05:05:54;;;;;;;;;;;;;;;14.22;55.57;101910.56;4177639;28;20507;-71
2023/05/30 05:07:55;;;;;;;;;;;;;;;14.26;55.15;101895.59;4178353;28;20027;-71
2023/05/30 05:09:57;;;;;;;;;;;;;;;14.31;55.25;101895.94;4177355;28;20019;-71
2023/05/30 05:12:01;;;;;;;;;;;;;;;14.35;55.06;101897.25;4178101;28;20365;-71
2023/05/30 05:14:03;;;;;;;;;;;;;;;14.37;55.06;101900.69;4177932;28;20360;-71
2023/05/30 05:16:06;;;;;;;;;;;;;;;14.40;54.36;101900.34;4177954;28;20335;-70
2023/05/30 05:18:10;;;;;;;;;;;;;;;14.42;53.91;101901.00;4178576;28;20028;-72
2023/05/30 05:20:12;;;;;;;;;;;;;;;14.45;53.87;101902.53;4169107;28;20007;-72
2023/05/30 05:22:14;;;;;;;;;;;;;;;14.50;53.93;101902.84;4176381;28;20028;-72
2023/05/30 05:24:16;;;;;;;;;;;;;;;14.53;53.08;101907.06;4178135;28;20322;-72
2023/05/30 05:26:18;;;;;;;;;;;;;;;14.56;53.08;101912.16;4177854;28;20020;-72
2023/05/30 05:28:20;;;;;;;;;;;;;;;14.57;52.67;101905.69;4177488;28;20016;-72
2023/05/30 05:30:22;;;;;;;;;;;;;;;14.61;52.87;101901.66;4176722;28;20367;-72
2023/05/30 05:32:24;;;;;;;;;;;;;;;14.62;52.58;101911.47;4177019;28;20455;-72
2023/05/30 05:34:27;;;;;;;;;;;;;;;14.65;52.27;101915.75;4175962;28;20007;-72
2023/05/30 05:36:29;;;;;;;;;;;;;;;14.67;52.31;101916.41;4176683;28;20016;-72
2023/05/30 05:38:31;;;;;;;;;;;;;;;14.69;52.51;101912.50;4175569;28;20031;-72
2023/05/30 05:40:33;;;;;;;;;;;;;;;14.74;52.89;101910.09;4176164;28;20024;-72
2023/05/30 05:42:35;;;;;;;;;;;;;;;14.78;52.28;101911.44;4177138;28;20015;-72
2023/05/30 05:44:37;;;;;;;;;;;;;;;14.85;52.50;101913.47;4176119;28;20020;-72
2023/05/30 05:46:39;;;;;;;;;;;;;;;14.89;52.47;101910.22;4179000;28;20023;-72
2023/05/30 05:48:41;;;;;;;;;;;;;;;14.95;52.81;101914.06;4177770;28;20365;-72
2023/05/30 05:50:45;;;;;;;;;;;;;;;14.99;52.34;101918.16;4177989;28;20012;-72
2023/05/30 05:52:48;;;;;;;;;;;;;;;15.03;51.48;101915.91;4178247;28;20024;-71
2023/05/30 05:54:50;;;;;;;;;;;;;;;15.04;51.98;101915.72;4180902;28;20019;-72
2023/05/30 05:56:55;;;;;;;;;;;;;;;15.05;51.16;101922.88;4181424;28;20020;-72
2023/05/30 05:58:56;;;;;;;;;;;;;;;15.07;51.14;101909.94;4177509;28;20023;-72
2023/05/30 06:00:59;;;;;;;;;;;;;;;15.11;50.74;101915.88;4177384;28;20016;-72
2023/05/30 06:03:00;;;;;;;;;;;;;;;15.14;50.28;101918.25;4177113;28;20701;-72
2023/05/30 06:05:03;;;;;;;;;;;;;;;15.18;49.74;101916.84;4176644;28;20027;-72
2023/05/30 06:07:07;;;;;;;;;;;;;;;15.23;49.84;101927.19;4179874;28;20016;-72
2023/05/30 06:09:09;;;;;;;;;;;;;;;15.26;49.51;101922.25;4179988;28;20020;-72
2023/05/30 06:11:11;;;;;;;;;;;;;;;15.30;49.12;101922.75;4180811;28;20028;-72
2023/05/30 06:13:16;;;;;;;;;;;;;;;15.34;49.02;101917.78;4180088;28;20432;-72
2023/05/30 06:15:18;;;;;;;;;;;;;;;15.38;48.46;101917.25;4180201;28;20027;-72
2023/05/30 06:17:19;;;;;;;;;;;;;;;15.41;48.04;101918.78;4180662;28;20023;-72
2023/05/30 06:19:21;;;;;;;;;;;;;;;15.44;48.33;101923.84;4181134;28;20028;-72
2023/05/30 06:21:23;;;;;;;;;;;;;;;15.48;48.22;101923.28;4180936;28;20012;-72
2023/05/30 06:23:27;;;;;;;;;;;;;;;15.52;48.31;101921.06;4180761;28;20024;-72
2023/05/30 06:25:30;;;;;;;;;;;;;;;15.59;48.03;101927.47;4179565;28;19975;-72
2023/05/30 06:27:32;;;;;;;;;;;;;;;15.63;47.90;101920.63;4180851;28;20012;-72
2023/05/30 06:29:34;;;;;;;;;;;;;;;15.67;47.79;101913.81;4177741;28;20455;-72
2023/05/30 06:31:36;;;;;;;;;;;;;;;15.73;47.98;101925.84;4176151;28;20019;-72
2023/05/30 06:33:38;;;;;;;;;;;;;;;15.77;47.79;101923.66;4171463;28;20019;-72
2023/05/30 06:35:41;;;;;;;;;;;;;;;15.80;47.40;101929.56;4175448;28;21049;-72
2023/05/30 06:37:43;;;;;;;;;;;;;;;15.82;47.35;101919.31;4180487;28;20016;-72
2023/05/30 06:39:46;;;;;;;;;;;;;;;15.84;46.92;101919.97;4179606;28;20031;-72
2023/05/30 06:41:48;;;;;;;;;;;;;;;15.87;47.01;101926.94;4183430;28;20016;-72
2023/05/30 06:44:06;;;;;;;;;;;;;;;15.89;46.96;101933.06;4179205;28;20023;-71
2023/05/30 06:46:08;;;;;;;;;;;;;;;15.92;47.09;101920.94;4178398;28;20367;-72
2023/05/30 06:48:10;;;;;;;;;;;;;;;15.96;46.92;101925.84;4179171;28;20015;-71
2023/05/30 06:50:12;;;;;;;;;;;;;;;15.97;47.00;101934.88;4181551;28;20015;-71
2023/05/30 06:52:14;;;;;;;;;;;;;;;16.02;46.79;101932.47;4181656;28;20023;-72
2023/05/30 06:54:16;;;;;;;;;;;;;;;16.07;46.71;101938.19;4180369;28;20015;-72
2023/05/30 06:56:20;;;;;;;;;;;;;;;16.11;46.97;101938.66;4181294;28;20879;-72
2023/05/30 06:58:22;;;;;;;;;;;;;;;16.17;46.98;101935.19;4179433;28;20011;-71
2023/05/30 07:00:24;;;;;;;;;;;;;;;16.21;46.23;101941.97;4180744;28;20007;-72
2023/05/30 07:02:26;;;;;;;;;;;;;;;16.22;46.09;101938.22;4181151;28;20011;-72
2023/05/30 07:04:28;;;;;;;;;;;;;;;16.25;45.99;101937.84;4178455;28;20028;-71
2023/05/30 07:06:30;;;;;;;;;;;;;;;16.29;46.25;101941.06;4177585;28;20028;-71
2023/05/30 07:08:32;;;;;;;;;;;;;;;16.33;45.76;101945.09;4178324;28;20016;-71
2023/05/30 07:10:35;;;;;;;;;;;;;;;16.37;46.15;101947.25;4180744;28;20036;-71
2023/05/30 07:12:38;;;;;;;;;;;;;;;16.39;45.54;101947.94;4180315;28;20376;-71
2023/05/30 07:14:41;;;;;;;;;;;;;;;16.43;45.33;101947.56;4179629;28;20000;-72
2023/05/30 07:16:43;;;;;;;;;;;;;;;16.45;45.32;101942.75;4180149;28;20035;-72
2023/05/30 07:18:45;;;;;;;;;;;;;;;16.48;45.14;101945.13;4178957;28;20032;-72
2023/05/30 07:20:46;;;;;;;;;;;;;;;16.50;44.74;101946.59;4178192;28;20020;-71
2023/05/30 07:22:48;;;;;;;;;;;;;;;16.52;45.04;101938.25;4174557;28;20019;-72
2023/05/30 07:24:50;;;;;;;;;;;;;;;16.54;45.19;101958.00;4177174;28;20015;-71
2023/05/30 07:26:52;;;;;;;;;;;;;;;16.57;45.48;101953.03;4178239;28;20032;-72
2023/05/30 07:28:57;;;;;;;;;;;;;;;16.61;45.19;101952.66;4178557;28;20003;-72
2023/05/30 07:30:59;;;;;;;;;;;;;;;16.63;44.86;101948.72;4195013;28;20019;-71
2023/05/30 07:33:01;;;;;;;;;;;;;;;16.65;44.88;101954.81;4179264;28;20847;-72
2023/05/30 07:35:03;;;;;;;;;;;;;;;16.66;44.37;101951.06;4179591;28;20015;-71
2023/05/30 07:37:05;;;;;;;;;;;;;;;16.68;43.67;101951.72;4179873;28;20012;-72
2023/05/30 07:39:10;;;;;;;;;;;;;;;16.68;43.11;101950.88;4179299;28;20015;-72
2023/05/30 07:41:12;;;;;;;;;;;;;;;16.70;43.56;101948.78;4179794;28;20020;-72
2023/05/30 07:43:14;;;;;;;;;;;;;;;16.71;42.83;101958.69;4179882;28;20019;-72
2023/05/30 07:45:19;;;;;;;;;;;;;;;16.70;42.18;101955.09;4179310;28;20051;-71
2023/05/30 07:47:21;;;;;;;;;;;;;;;16.72;42.88;101950.31;4179651;28;20019;-71
2023/05/30 07:49:23;;;;;;;;;;;;;;;16.74;43.58;101948.22;4173560;28;20469;-71
2023/05/30 07:51:25;;;;;;;;;;;;;;;16.79;43.01;101949.56;4162757;28;20004;-71
2023/05/30 07:53:27;;;;;;;;;;;;;;;16.82;43.19;101943.69;4162997;28;20020;-71
2023/05/30 07:55:29;;;;;;;;;;;;;;;16.86;43.16;101953.22;4177156;28;20015;-71
2023/05/30 07:57:31;;;;;;;;;;;;;;;16.88;43.18;101952.03;4178828;28;20815;-71
2023/05/30 07:59:33;;;;;;;;;;;;;;;16.91;43.01;101957.09;4171278;28;20020;-72
2023/05/30 08:01:37;;;;;;;;;;;;;;;16.87;43.09;101938.56;4162986;28;20035;-71
2023/05/30 08:03:39;;;;;;;;;;;;;;;16.95;43.36;101949.38;4162279;28;20370;-71
2023/05/30 08:05:40;;;;;;;;;;;;;;;16.98;43.15;101953.63;4163342;28;20039;-72
2023/05/30 08:07:42;;;;;;;;;;;;;;;17.01;43.31;101953.25;4162817;28;20036;-71
2023/05/30 08:09:44;;;;;;;;;;;;;;;17.03;43.36;101952.00;4169950;28;20012;-72
2023/05/30 08:11:47;;;;;;;;;;;;;;;17.06;43.35;101953.50;4179256;28;20027;-72
2023/05/30 08:13:49;;;;;;;;;;;;;;;17.08;43.32;101954.16;4176701;28;20020;-72
2023/05/30 08:15:51;;;;;;;;;;;;;;;17.10;43.49;101952.09;4161981;28;20012;-72
2023/05/30 08:17:56;;;;;;;;;;;;;;;17.11;43.68;101945.56;4162464;28;20008;-72
2023/05/30 08:19:58;;;;;;;;;;;;;;;17.14;43.64;101945.19;4161633;28;20404;-72
2023/05/30 08:22:00;;;;;;;;;;;;;;;17.17;43.53;101947.53;4162133;28;20012;-72
2023/05/30 08:24:02;;;;;;;;;;;;;;;17.19;43.49;101950.09;4165137;28;20023;-72
2023/05/30 08:26:06;;;;;;;;;;;;;;;17.22;43.43;101945.06;4178111;28;20082;-71
2023/05/30 08:28:10;;;;;;;;;;;;;;;17.25;43.66;101952.06;4178913;28;20012;-72
2023/05/30 08:30:13;;;;;;;;;;;;;;;17.27;43.54;101953.56;4166019;28;20012;-71
2023/05/30 08:32:15;;;;;;;;;;;;;;;17.31;43.29;101945.00;4161574;28;20012;-71
2023/05/30 08:34:24;;;;;;;;;;;;;;;17.33;43.76;101945.63;4161513;28;20373;-72
2023/05/30 08:36:27;;;;;;;;;;;;;;;17.34;43.45;101939.97;4162649;28;20015;-71
2023/05/30 08:38:29;;;;;;;;;;;;;;;17.36;43.67;101946.09;4163656;28;20016;-71
2023/05/30 08:40:31;;;;;;;;;;;;;;;17.38;43.23;101948.63;4162345;28;20019;-72
2023/05/30 08:42:33;;;;;;;;;;;;;;;17.39;43.36;101942.97;4160916;28;20014;-72
2023/05/30 08:44:35;;;;;;;;;;;;;;;17.41;43.57;101950.97;4169397;28;20028;-72
2023/05/30 08:46:39;;;;;;;;;;;;;;;17.42;43.38;101945.31;4178902;28;20031;-71
2023/05/30 08:48:41;;;;;;;;;;;;;;;17.47;43.56;101959.22;4176330;28;19952;-71
2023/05/30 08:50:44;;;;;;;;;;;;;;;17.51;42.42;101947.91;4180212;28;20007;-72
2023/05/30 08:52:46;;;;;;;;;;;;;;;17.53;43.31;101949.44;4178900;28;20784;-72
2023/05/30 08:54:49;;;;;;;;;;;;;;;17.55;43.56;101950.06;4166429;28;19952;-72
2023/05/30 08:56:55;;;;;;;;;;;;;;;17.55;43.39;101944.59;4161839;28;20362;-71
2023/05/30 08:58:58;;;;;;;;;;;;;;;17.62;43.09;101951.00;4145496;28;20025;-72
2023/05/30 09:01:00;;;;;;;;;;;;;;;17.65;43.26;101961.53;4163056;28;20035;-72
2023/05/30 09:03:02;;;;;;;;;;;;;;;17.67;43.29;101952.31;4160992;28;20011;-71
2023/05/30 09:05:04;;;;;;;;;;;;;;;17.68;43.38;101949.38;4161730;28;20011;-71
2023/05/30 09:07:08;;;;;;;;;;;;;;;17.71;43.18;101953.59;4163029;28;20029;-72
2023/05/30 09:09:13;;;;;;;;;;;;;;;17.73;42.54;101957.00;4162729;28;20015;-72
2023/05/30 09:11:15;;;;;;;;;;;;;;;17.76;42.54;101959.34;4163036;28;20116;-71
2023/05/30 09:13:17;;;;;;;;;;;;;;;17.78;42.54;101954.50;4177956;28;19960;-71
2023/05/30 09:15:19;;;;;;;;;;;;;;;17.81;42.32;101963.16;4154195;28;20098;-72
2023/05/30 09:17:21;;;;;;;;;;;;;;;17.84;42.43;101959.19;4162694;28;20016;-72
2023/05/30 09:19:23;;;;;;;;;;;;;;;17.86;42.47;101959.84;4162812;28;20443;-72
2023/05/30 09:21:25;;;;;;;;;;;;;;;17.88;42.67;101962.38;4162996;28;20035;-72
2023/05/30 09:23:29;;;;;;;;;;;;;;;17.87;42.59;101958.81;4161977;28;20370;-72
2023/05/30 09:25:40;;;;;;;;;;;;;;;17.89;42.21;101958.66;4159678;28;20447;-72
2023/05/30 09:27:44;;;;;;;;;;;;;;;17.92;42.10;101952.78;4164666;28;20020;-72
2023/05/30 09:29:46;;;;;;;;;;;;;;;17.93;42.47;101958.06;4162658;28;20072;-71
2023/05/30 09:31:48;;;;;;;;;;;;;;;17.93;42.68;101960.78;4165012;28;20024;-72
2023/05/30 09:33:50;;;;;;;;;;;;;;;17.96;42.43;101963.13;4164952;28;20020;-72
2023/05/30 09:35:52;;;;;;;;;;;;;;;17.97;42.39;101967.53;4166254;28;20019;-71
2023/05/30 09:37:54;;;;;;;;;;;;;;;17.99;42.26;101972.81;4164303;28;20369;-71
2023/05/30 09:40:12;;;;;;;;;;;;;;;17.99;42.37;101965.47;4164217;28;20028;-72
2023/05/30 09:42:14;;;;;;;;;;;;;;;18.00;42.21;101963.56;4165236;28;20040;-71
2023/05/30 09:44:16;;;;;;;;;;;;;;;17.99;42.63;101957.28;4165616;28;20025;-72
2023/05/30 09:46:19;;;;;;;;;;;;;;;18.00;42.34;101975.34;4166040;28;20384;-72
2023/05/30 09:48:21;;;;;;;;;;;;;;;18.00;42.24;101961.69;4161741;28;20407;-71
2023/05/30 09:50:24;;;;;;;;;;;;;;;18.00;42.08;101964.41;4179731;28;20015;-72
2023/05/30 09:52:29;;;;;;;;;;;;;;;18.03;42.18;101956.88;4182148;28;20866;-72
2023/05/30 09:54:33;;;;;;;;;;;;;;;18.05;42.48;101966.56;4180187;28;20024;-72
2023/05/30 09:56:37;;;;;;;;;;;;;;;18.09;42.22;101975.22;4180649;28;20024;-71
2023/05/30 09:58:39;;;;;;;;;;;;;;;18.10;42.21;101965.97;4181386;28;20011;-71
2023/05/30 10:00:41;;;;;;;;;;;;;;;18.12;42.16;101972.06;4182414;28;20019;-71
2023/05/30 10:02:44;;;;;;;;;;;;;;;18.13;42.03;101957.38;4180748;28;20012;-71
2023/05/30 10:04:49;;;;;;;;;;;;;;;18.13;42.07;101963.69;4180654;28;20041;-72
2023/05/30 10:06:52;;;;;;;;;;;;;;;18.14;42.14;101959.91;4181418;28;20397;-71
2023/05/30 10:08:54;;;;;;;;;;;;;;;18.16;41.35;101959.72;4180763;28;20023;-71
2023/05/30 10:10:57;;;;;;;;;;;;;;;18.17;41.94;101958.69;4181638;28;20008;-71
2023/05/30 10:13:01;;;;;;;;;;;;;;;18.16;42.03;101955.06;4181905;28;20015;-71
2023/05/30 10:15:03;;;;;;;;;;;;;;;18.17;41.94;101955.94;4178091;28;20032;-71
2023/05/30 10:17:05;;;;;;;;;;;;;;;18.17;42.17;101947.75;4176171;28;20024;-72
2023/05/30 10:19:10;;;;;;;;;;;;;;;18.19;41.84;101956.59;4174965;28;20012;-71
2023/05/30 10:21:12;;;;;;;;;;;;;;;18.19;41.88;101946.47;4161263;28;20027;-71
2023/05/30 10:23:15;;;;;;;;;;;;;;;18.22;41.49;101955.34;4157080;28;20067;-71
2023/05/30 10:25:17;;;;;;;;;;;;;;;18.22;41.66;101948.00;4172428;28;20019;-71
2023/05/30 10:27:25;;;;;;;;;;;;;;;18.24;41.61;101951.34;4180043;28;19960;-72
2023/05/30 10:29:30;;;;;;;;;;;;;;;18.26;41.68;101953.91;4173010;28;20004;-71
2023/05/30 10:31:32;;;;;;;;;;;;;;;18.28;41.33;101952.66;4162755;28;19990;-70